createdAt,value
2019-04-23T00:01:14.787Z,9.00
2019-04-23T00:02:40.791Z,7.73
2019-04-23T00:03:52.068Z,8.27
2019-04-23T00:04:52.807Z,6.57
2019-04-23T00:06:17.002Z,10.90
2019-04-23T00:07:15.808Z,10.90
2019-04-23T00:08:20.087Z,11.30
2019-04-23T00:10:30.348Z,7.43
2019-04-23T00:11:44.518Z,8.33
2019-04-23T00:12:58.385Z,7.50
2019-04-23T00:13:50.312Z,8.67
2019-04-23T00:15:04.493Z,8.83
2019-04-23T00:17:18.060Z,6.60
2019-04-23T00:18:28.172Z,7.00
2019-04-23T00:19:24.882Z,6.43
2019-04-23T00:20:25.729Z,6.07
2019-04-23T00:21:55.079Z,8.67
2019-04-23T00:23:11.100Z,7.23
2019-04-23T00:24:52.215Z,8.43
2019-04-23T00:26:03.961Z,9.30
2019-04-23T00:27:15.631Z,8.07
2019-04-23T00:29:18.558Z,7.70
2019-04-23T00:30:38.200Z,8.17
2019-04-23T00:33:46.157Z,9.70
2019-04-23T00:34:54.726Z,7.07
2019-04-23T00:35:59.706Z,7.63
2019-04-23T00:37:12.478Z,7.83
2019-04-23T00:38:16.713Z,6.80
2019-04-23T00:39:17.276Z,8.97
2019-04-23T00:40:25.835Z,9.00
2019-04-23T00:41:30.888Z,5.93
2019-04-23T00:42:38.415Z,8.17
2019-04-23T00:43:43.218Z,11.30
2019-04-23T00:45:48.692Z,7.63
2019-04-23T00:46:54.636Z,7.13
2019-04-23T00:48:09.271Z,9.17
2019-04-23T00:49:10.794Z,8.07
2019-04-23T00:50:41.360Z,6.40
2019-04-23T00:51:23.908Z,8.97
2019-04-23T00:53:35.708Z,11.07
2019-04-23T00:54:50.066Z,9.20
2019-04-23T00:55:47.687Z,15.93
2019-04-23T00:58:06.259Z,8.97
2019-04-23T00:59:05.405Z,8.70
2019-04-23T01:00:19.272Z,8.13
2019-04-23T01:01:19.897Z,8.83
2019-04-23T01:02:31.145Z,9.43
2019-04-23T01:03:26.782Z,8.10
2019-04-23T01:04:45.364Z,7.03
2019-04-23T01:05:41.008Z,9.70
2019-04-23T01:06:54.908Z,9.67
2019-04-23T01:07:58.219Z,7.93
2019-04-23T01:09:03.726Z,8.53
2019-04-23T01:10:25.621Z,7.63
2019-04-23T01:11:23.978Z,11.47
2019-04-23T01:12:38.408Z,10.53
2019-04-23T01:14:41.466Z,9.53
2019-04-23T01:15:54.256Z,7.10
2019-04-23T01:16:55.030Z,9.43
2019-04-23T01:18:18.675Z,8.73
2019-04-23T01:19:18.862Z,9.83
2019-04-23T01:20:40.637Z,7.47
2019-04-23T01:21:24.606Z,13.60
2019-04-23T01:22:31.574Z,7.57
2019-04-23T01:23:54.923Z,6.97
2019-04-23T01:25:09.779Z,8.17
2019-04-23T01:26:29.611Z,8.47
2019-04-23T01:28:00.746Z,12.30
2019-04-23T01:28:47.932Z,7.93
2019-04-23T01:29:58.540Z,9.47
2019-04-23T01:31:03.710Z,8.37
2019-04-23T01:32:08.565Z,9.23
2019-04-23T01:33:18.424Z,9.57
2019-04-23T01:34:28.018Z,10.00
2019-04-23T01:35:28.793Z,11.30
2019-04-23T01:36:44.685Z,8.40
2019-04-23T01:38:46.146Z,7.80
2019-04-23T01:39:52.832Z,8.63
2019-04-23T01:40:53.844Z,7.50
2019-04-23T01:42:04.112Z,7.37
2019-04-23T01:43:10.838Z,8.10
2019-04-23T01:44:14.344Z,10.70
2019-04-23T01:46:28.932Z,8.63
2019-04-23T01:47:39.032Z,10.43
2019-04-23T01:48:42.080Z,7.43
2019-04-23T01:49:56.465Z,8.23
2019-04-23T01:50:54.544Z,10.43
2019-04-23T01:52:01.672Z,10.27
2019-04-23T01:53:08.657Z,11.43
2019-04-23T01:54:09.523Z,9.13
2019-04-23T01:56:25.950Z,9.67
2019-04-23T01:57:30.649Z,10.50
2019-04-23T01:59:46.192Z,8.40
2019-04-23T02:00:47.506Z,11.93
2019-04-23T02:03:01.132Z,9.50
2019-04-23T02:04:11.281Z,7.80
2019-04-23T02:05:23.187Z,11.00
2019-04-23T02:06:20.520Z,8.00
2019-04-23T02:07:29.939Z,9.30
2019-04-23T02:08:28.017Z,10.87
2019-04-23T02:09:43.449Z,9.40
2019-04-23T02:10:51.336Z,11.57
2019-04-23T02:11:53.826Z,11.47
2019-04-23T02:13:03.169Z,9.33
2019-04-23T02:14:03.722Z,10.87
2019-04-23T02:15:14.053Z,8.37
2019-04-23T02:16:10.203Z,9.90
2019-04-23T02:17:24.926Z,9.00
2019-04-23T02:18:42.562Z,9.40
2019-04-23T02:19:42.365Z,11.40
2019-04-23T02:20:46.135Z,9.73
2019-04-23T02:22:18.099Z,20.97
2019-04-23T02:23:31.215Z,10.67
2019-04-23T02:24:41.286Z,11.40
2019-04-23T02:25:50.372Z,10.70
2019-04-23T02:27:05.184Z,10.07
2019-04-23T02:28:06.031Z,10.30
2019-04-23T02:29:14.140Z,11.03
2019-04-23T02:30:36.146Z,12.63
2019-04-23T02:32:31.960Z,12.97
2019-04-23T02:34:57.695Z,11.90
2019-04-23T02:36:55.013Z,11.00
2019-04-23T02:41:19.288Z,11.33
2019-04-23T02:43:01.666Z,9.27
2019-04-23T02:44:50.698Z,13.87
2019-04-23T02:45:54.583Z,11.03
2019-04-23T02:46:56.790Z,12.90
2019-04-23T02:48:01.828Z,11.83
2019-04-23T02:49:12.449Z,9.07
2019-04-23T02:51:10.855Z,11.53
2019-04-23T02:53:37.627Z,10.87
2019-04-23T02:57:50.363Z,12.20
2019-04-23T02:59:05.613Z,14.40
2019-04-23T03:03:44.115Z,11.73
2019-04-23T03:04:37.194Z,11.77
2019-04-23T03:07:49.575Z,13.83
2019-04-23T03:09:58.790Z,14.00
2019-04-23T03:12:20.124Z,12.53
2019-04-23T03:13:30.805Z,12.37
2019-04-23T03:14:26.775Z,14.73
2019-04-23T03:15:50.701Z,15.23
2019-04-23T03:18:42.087Z,10.73
2019-04-23T03:19:52.348Z,14.47
2019-04-23T03:21:24.067Z,11.50
2019-04-23T03:23:31.888Z,12.13
2019-04-23T03:24:55.469Z,11.47
2019-04-23T03:26:08.540Z,10.67
2019-04-23T03:28:25.269Z,11.73
2019-04-23T03:32:30.238Z,11.20
2019-04-23T03:34:56.403Z,12.80
2019-04-23T03:38:41.670Z,15.03
2019-04-23T03:39:50.437Z,13.50
2019-04-23T03:40:37.313Z,12.43
2019-04-23T03:41:50.762Z,10.83
2019-04-23T03:43:01.315Z,18.97
2019-04-23T03:43:51.475Z,13.40
2019-04-23T03:45:27.891Z,13.10
2019-04-23T03:48:41.620Z,14.67
2019-04-23T03:49:33.305Z,11.87
2019-04-23T03:50:35.845Z,13.93
2019-04-23T03:51:42.827Z,12.77
2019-04-23T03:54:05.030Z,14.67
2019-04-23T03:55:06.162Z,12.63
2019-04-23T03:56:18.900Z,10.93
2019-04-23T03:58:28.180Z,12.10
2019-04-23T04:01:34.745Z,12.10
2019-04-23T04:04:20.672Z,12.23
2019-04-23T04:05:14.418Z,14.17
2019-04-23T04:06:15.414Z,12.77
2019-04-23T04:07:18.558Z,10.57
2019-04-23T04:10:31.607Z,11.63
2019-04-23T04:11:25.773Z,15.20
2019-04-23T04:12:46.338Z,17.27
2019-04-23T04:13:50.820Z,10.90
2019-04-23T04:14:54.414Z,12.77
2019-04-23T04:16:01.299Z,13.07
2019-04-23T04:17:12.399Z,14.20
2019-04-23T04:19:25.170Z,14.90
2019-04-23T04:20:33.164Z,13.60
2019-04-23T04:22:47.109Z,13.57
2019-04-23T04:23:42.764Z,13.37
2019-04-23T04:26:02.247Z,12.10
2019-04-23T04:27:05.648Z,15.63
2019-04-23T04:29:10.830Z,13.30
2019-04-23T04:30:22.136Z,14.83
2019-04-23T04:31:30.986Z,14.30
2019-04-23T04:32:31.600Z,12.67
2019-04-23T04:33:49.015Z,13.53
2019-04-23T04:35:54.417Z,12.77
2019-04-23T04:38:16.511Z,17.83
2019-04-23T04:39:02.901Z,13.07
2019-04-23T04:40:23.586Z,12.63
2019-04-23T04:41:25.657Z,13.17
2019-04-23T04:44:42.692Z,14.10
2019-04-23T04:45:52.102Z,11.70
2019-04-23T04:46:49.993Z,14.23
2019-04-23T04:49:05.541Z,18.00
2019-04-23T04:50:19.252Z,15.17
2019-04-23T04:51:20.727Z,15.07
2019-04-23T04:52:34.250Z,16.97
2019-04-23T04:53:47.417Z,12.53
2019-04-23T04:54:22.743Z,12.77
2019-04-23T04:56:43.064Z,17.30
2019-04-23T04:57:56.686Z,14.47
2019-04-23T05:00:10.410Z,14.00
2019-04-23T05:03:25.971Z,15.10
2019-04-23T05:08:54.473Z,13.17
2019-04-23T05:11:07.776Z,16.67
2019-04-23T05:15:25.434Z,14.00
2019-04-23T05:16:34.581Z,12.40
2019-04-23T05:18:00.328Z,16.27
2019-04-23T05:19:03.552Z,21.60
2019-04-23T05:20:16.976Z,13.27
2019-04-23T05:21:16.056Z,14.70
2019-04-23T05:22:17.085Z,15.63
2019-04-23T05:24:33.276Z,16.20
2019-04-23T05:25:31.766Z,16.97
2019-04-23T05:26:38.319Z,14.97
2019-04-23T05:27:53.557Z,11.57
2019-04-23T05:30:02.833Z,14.40
2019-04-23T05:31:21.689Z,15.27
2019-04-23T05:32:23.730Z,13.03
2019-04-23T05:34:38.143Z,14.07
2019-04-23T05:36:52.034Z,14.73
2019-04-23T05:38:22.342Z,13.30
2019-04-23T05:39:08.313Z,17.27
2019-04-23T05:40:30.663Z,16.63
2019-04-23T05:42:37.910Z,18.13
2019-04-23T05:43:40.886Z,15.43
2019-04-23T05:45:49.650Z,12.73
2019-04-23T05:47:04.259Z,15.90
2019-04-23T05:48:13.252Z,15.93
2019-04-23T05:50:30.501Z,13.70
2019-04-23T05:52:31.295Z,14.67
2019-04-23T05:53:40.768Z,14.13
2019-04-23T05:54:46.495Z,14.20
2019-04-23T05:55:47.602Z,13.97
2019-04-23T05:56:53.921Z,14.13
2019-04-23T05:58:16.576Z,13.27
2019-04-23T05:59:06.675Z,14.50
2019-04-23T06:00:07.599Z,18.57
2019-04-23T06:02:35.297Z,15.33
2019-04-23T06:03:44.485Z,16.13
2019-04-23T06:04:43.146Z,13.90
2019-04-23T06:06:01.206Z,15.37
2019-04-23T06:08:03.430Z,13.90
2019-04-23T06:09:08.034Z,13.67
2019-04-23T06:10:14.999Z,14.67
2019-04-23T06:11:28.120Z,13.73
2019-04-23T06:12:26.673Z,16.27
2019-04-23T06:13:35.911Z,14.40
2019-04-23T06:14:47.464Z,13.67
2019-04-23T06:15:44.029Z,16.90
2019-04-23T06:18:02.001Z,12.53
2019-04-23T06:19:10.580Z,15.17
2019-04-23T06:20:24.969Z,11.30
2019-04-23T06:21:18.821Z,11.93
2019-04-23T06:22:28.925Z,15.27
2019-04-23T06:23:36.511Z,14.43
2019-04-23T06:24:39.802Z,14.47
2019-04-23T06:26:15.588Z,13.57
2019-04-23T06:27:58.088Z,13.07
2019-04-23T06:29:05.365Z,16.30
2019-04-23T06:30:03.978Z,14.20
2019-04-23T06:32:23.144Z,12.67
2019-04-23T06:33:27.302Z,17.13
2019-04-23T06:34:31.387Z,12.43
2019-04-23T06:35:43.825Z,14.40
2019-04-23T06:36:46.680Z,15.47
2019-04-23T06:38:28.093Z,11.83
2019-04-23T06:40:00.409Z,14.87
2019-04-23T06:41:11.722Z,14.20
2019-04-23T06:42:36.074Z,12.20
2019-04-23T06:43:24.088Z,12.50
2019-04-23T06:44:32.328Z,16.47
2019-04-23T06:45:37.445Z,12.53
2019-04-23T06:46:50.579Z,14.17
2019-04-23T06:47:54.171Z,17.37
2019-04-23T06:48:58.992Z,13.87
2019-04-23T06:49:58.195Z,17.13
2019-04-23T06:51:15.988Z,14.60
2019-04-23T06:53:19.728Z,19.20
2019-04-23T06:54:36.310Z,15.53
2019-04-23T06:55:35.765Z,20.73
2019-04-23T06:56:56.288Z,22.10
2019-04-23T06:57:48.170Z,18.50
2019-04-23T06:58:50.449Z,16.70
2019-04-23T06:59:59.269Z,18.27
2019-04-23T07:01:04.933Z,21.40
2019-04-23T07:02:11.825Z,14.57
2019-04-23T07:03:23.240Z,17.30
2019-04-23T07:04:30.028Z,14.60
2019-04-23T07:05:53.470Z,15.00
2019-04-23T07:07:19.520Z,14.67
2019-04-23T07:08:02.765Z,14.00
2019-04-23T07:09:13.139Z,12.03
2019-04-23T07:12:45.917Z,16.00
2019-04-23T07:13:40.182Z,16.87
2019-04-23T07:14:44.547Z,19.70
2019-04-23T07:15:58.570Z,19.23
2019-04-23T07:16:52.854Z,16.07
2019-04-23T07:17:54.319Z,19.97
2019-04-23T07:20:11.622Z,15.30
2019-04-23T07:21:18.326Z,16.90
2019-04-23T07:24:33.138Z,12.50
2019-04-23T07:25:40.373Z,16.10
2019-04-23T07:26:52.847Z,14.13
2019-04-23T07:27:47.392Z,15.37
2019-04-23T07:30:10.363Z,16.20
2019-04-23T07:31:19.163Z,14.73
2019-04-23T07:32:32.558Z,14.57
2019-04-23T07:33:27.915Z,14.33
2019-04-23T07:34:23.246Z,11.80
2019-04-23T07:35:30.505Z,11.00
2019-04-23T07:36:44.635Z,11.17
2019-04-23T07:37:57.187Z,14.13
2019-04-23T07:39:19.102Z,10.67
2019-04-23T07:41:54.916Z,16.73
2019-04-23T07:43:03.302Z,15.33
2019-04-23T07:44:46.660Z,15.57
2019-04-23T07:46:10.379Z,18.07
2019-04-23T07:47:43.560Z,18.73
2019-04-23T07:48:27.634Z,16.00
2019-04-23T07:49:56.550Z,12.57
2019-04-23T07:50:49.435Z,13.40
2019-04-23T07:52:01.267Z,11.70
2019-04-23T07:53:08.920Z,15.43
2019-04-23T07:54:09.530Z,12.70
2019-04-23T07:55:19.327Z,12.93
2019-04-23T07:56:27.916Z,14.40
2019-04-23T07:59:43.930Z,14.23
2019-04-23T08:00:45.579Z,11.40
2019-04-23T08:01:52.367Z,15.47
2019-04-23T08:02:58.324Z,15.83
2019-04-23T08:04:01.837Z,16.77
2019-04-23T08:05:15.667Z,12.83
2019-04-23T08:06:13.489Z,13.37
2019-04-23T08:07:21.271Z,15.90
2019-04-23T08:08:39.672Z,13.90
2019-04-23T08:09:43.424Z,11.63
2019-04-23T08:10:46.602Z,25.27
2019-04-23T08:12:02.897Z,14.40
2019-04-23T08:12:56.279Z,15.33
2019-04-23T08:13:56.976Z,12.87
2019-04-23T08:15:13.076Z,15.37
2019-04-23T08:16:25.993Z,11.50
2019-04-23T08:17:16.125Z,14.03
2019-04-23T08:18:27.633Z,12.63
2019-04-23T08:19:36.846Z,14.33
2019-04-23T08:20:35.310Z,16.53
2019-04-23T08:21:39.742Z,14.80
2019-04-23T08:22:48.037Z,15.13
2019-04-23T08:25:35.094Z,16.23
2019-04-23T08:26:59.671Z,16.10
2019-04-23T08:28:13.646Z,11.83
2019-04-23T08:29:27.638Z,14.73
2019-04-23T08:30:28.897Z,15.87
2019-04-23T08:31:40.291Z,16.90
2019-04-23T08:32:27.784Z,15.17
2019-04-23T08:33:49.979Z,16.33
2019-04-23T08:34:57.792Z,17.80
2019-04-23T08:35:58.882Z,17.10
2019-04-23T08:37:04.951Z,17.97
2019-04-23T08:39:18.270Z,15.17
2019-04-23T08:40:19.902Z,17.30
2019-04-23T08:41:36.019Z,17.13
2019-04-23T08:43:54.841Z,13.53
2019-04-23T08:48:20.637Z,14.10
2019-04-23T08:50:29.679Z,12.60
2019-04-23T08:51:57.058Z,16.00
2019-04-23T08:52:37.010Z,17.20
2019-04-23T08:53:42.423Z,15.43
2019-04-23T08:54:56.820Z,19.07
2019-04-23T08:56:12.023Z,11.83
2019-04-23T08:58:14.359Z,16.23
2019-04-23T08:59:25.389Z,12.77
2019-04-23T09:00:31.451Z,10.90
2019-04-23T09:01:48.009Z,14.70
2019-04-23T09:02:55.215Z,13.33
2019-04-23T09:03:55.959Z,13.70
2019-04-23T09:04:56.834Z,21.10
2019-04-23T09:07:04.485Z,15.57
2019-04-23T09:08:19.269Z,20.60
2019-04-23T09:09:12.733Z,14.37
2019-04-23T09:10:22.825Z,15.43
2019-04-23T09:11:41.659Z,15.80
2019-04-23T09:14:44.979Z,12.97
2019-04-23T09:15:51.779Z,14.63
2019-04-23T09:17:02.482Z,12.93
2019-04-23T09:18:04.260Z,18.37
2019-04-23T09:20:23.446Z,22.53
2019-04-23T09:21:22.130Z,12.53
2019-04-23T09:22:38.625Z,19.50
2019-04-23T09:23:45.136Z,18.47
2019-04-23T09:24:41.525Z,13.20
2019-04-23T09:25:47.760Z,15.00
2019-04-23T09:26:56.351Z,16.13
2019-04-23T09:28:16.113Z,17.93
2019-04-23T09:31:45.596Z,23.03
2019-04-23T09:32:40.200Z,13.67
2019-04-23T09:33:58.358Z,14.73
2019-04-23T09:35:26.029Z,15.93
2019-04-23T09:36:41.925Z,17.43
2019-04-23T09:38:07.073Z,15.97
2019-04-23T09:39:34.753Z,13.90
2019-04-23T09:41:15.172Z,13.50
2019-04-23T09:42:27.964Z,12.03
2019-04-23T09:43:38.570Z,15.27
2019-04-23T09:45:26.925Z,14.77
2019-04-23T09:46:23.481Z,14.43
2019-04-23T09:50:23.538Z,12.30
2019-04-23T09:51:32.776Z,14.93
2019-04-23T09:52:42.594Z,18.10
2019-04-23T09:53:33.822Z,15.63
2019-04-23T09:54:51.348Z,11.43
2019-04-23T09:56:01.173Z,19.07
2019-04-23T09:56:52.275Z,20.60
2019-04-23T09:59:15.686Z,16.67
2019-04-23T10:00:22.934Z,20.60
2019-04-23T10:02:28.234Z,23.47
2019-04-23T10:03:26.930Z,14.87
2019-04-23T10:04:31.935Z,19.07
2019-04-23T10:05:33.626Z,19.40
2019-04-23T10:06:36.210Z,17.03
2019-04-23T10:07:47.019Z,13.90
2019-04-23T10:08:50.006Z,16.10
2019-04-23T10:09:51.320Z,20.80
2019-04-23T10:10:57.386Z,25.50
2019-04-23T10:12:03.111Z,14.60
2019-04-23T10:13:08.342Z,19.10
2019-04-23T10:14:14.485Z,23.73
2019-04-23T10:15:25.015Z,15.43
2019-04-23T10:16:29.757Z,13.67
2019-04-23T10:17:31.927Z,16.03
2019-04-23T10:18:37.337Z,18.97
2019-04-23T10:19:42.714Z,19.50
2019-04-23T10:20:48.631Z,20.00
2019-04-23T10:21:53.418Z,19.23
2019-04-23T10:22:57.801Z,21.70
2019-04-23T10:24:03.375Z,16.73
2019-04-23T10:25:08.878Z,16.83
2019-04-23T10:26:14.235Z,18.30
2019-04-23T10:27:18.923Z,18.63
2019-04-23T10:28:31.658Z,10.23
2019-04-23T10:29:38.457Z,14.07
2019-04-23T10:30:42.978Z,19.23
2019-04-23T10:31:47.445Z,20.50
2019-04-23T10:32:51.806Z,12.80
2019-04-23T10:33:57.809Z,14.27
2019-04-23T10:35:14.653Z,16.57
2019-04-23T10:36:13.046Z,12.03
2019-04-23T10:37:15.562Z,15.53
2019-04-23T10:38:21.873Z,10.03
2019-04-23T10:39:31.758Z,17.50
2019-04-23T10:40:38.041Z,24.47
2019-04-23T10:41:40.542Z,17.47
2019-04-23T10:42:47.581Z,9.73
2019-04-23T10:43:56.706Z,12.27
2019-04-23T10:45:27.198Z,16.33
2019-04-23T10:46:53.696Z,16.07
2019-04-23T10:49:48.996Z,13.13
2019-04-23T10:50:51.366Z,14.90
2019-04-23T10:54:30.926Z,16.53
2019-04-23T10:55:27.163Z,16.10
2019-04-23T10:56:36.112Z,18.70
2019-04-23T10:57:32.579Z,17.87
2019-04-23T10:58:38.650Z,16.67
2019-04-23T10:59:49.046Z,12.60
2019-04-23T11:00:59.282Z,18.70
2019-04-23T11:02:23.959Z,22.97
2019-04-23T11:03:31.818Z,21.13
2019-04-23T11:04:34.245Z,18.73
2019-04-23T11:05:30.423Z,14.33
2019-04-23T11:06:45.292Z,14.67
2019-04-23T11:08:55.920Z,24.97
2019-04-23T11:10:03.311Z,20.63
2019-04-23T11:11:07.919Z,15.73
2019-04-23T11:12:37.118Z,18.23
2019-04-23T11:13:49.753Z,14.33
2019-04-23T11:14:41.941Z,13.50
2019-04-23T11:15:58.681Z,20.73
2019-04-23T11:16:57.225Z,14.67
2019-04-23T11:17:52.116Z,15.83
2019-04-23T11:19:07.790Z,16.17
2019-04-23T11:21:27.419Z,18.27
2019-04-23T11:22:42.563Z,12.53
2019-04-23T11:23:28.833Z,17.30
2019-04-23T11:24:44.156Z,16.10
2019-04-23T11:25:50.432Z,21.03
2019-04-23T11:27:07.873Z,19.60
2019-04-23T11:29:20.902Z,16.27
2019-04-23T11:30:25.879Z,14.00
2019-04-23T11:31:35.248Z,17.90
2019-04-23T11:32:46.762Z,21.33
2019-04-23T11:33:39.240Z,15.47
2019-04-23T11:35:08.757Z,19.43
2019-04-23T11:36:03.545Z,20.97
2019-04-23T11:38:23.640Z,17.15
2019-04-23T11:40:15.722Z,15.45
2019-04-23T11:41:26.347Z,21.30
2019-04-23T11:42:28.071Z,13.20
2019-04-23T11:43:32.776Z,12.28
2019-04-23T11:44:41.965Z,10.85
2019-04-23T11:45:54.041Z,12.85
2019-04-23T11:48:22.099Z,14.05
2019-04-23T11:49:34.641Z,21.55
2019-04-23T11:50:39.687Z,16.67
2019-04-23T11:52:32.832Z,16.45
2019-04-23T11:53:35.640Z,23.42
2019-04-23T11:55:44.824Z,9.25
2019-04-23T11:57:14.365Z,13.08
2019-04-23T11:58:16.985Z,20.70
2019-04-23T11:59:25.856Z,16.20
2019-04-23T12:00:06.123Z,14.93
2019-04-23T12:01:42.238Z,13.70
2019-04-23T12:03:07.442Z,11.90
2019-04-23T12:04:51.735Z,17.27
2019-04-23T12:08:57.343Z,20.70
2019-04-23T12:10:23.533Z,12.75
2019-04-23T12:11:54.541Z,19.65
2019-04-23T12:12:44.679Z,18.87
2019-04-23T12:17:04.163Z,19.40
2019-04-23T12:18:02.883Z,15.10
2019-04-23T12:19:35.660Z,15.10
2019-04-23T12:21:31.347Z,16.17
2019-04-23T12:22:29.814Z,16.37
2019-04-23T12:25:56.742Z,16.27
2019-04-23T12:27:56.439Z,19.00
2019-04-23T12:29:13.281Z,15.50
2019-04-23T12:30:20.336Z,15.53
2019-04-23T12:31:29.264Z,19.00
2019-04-23T12:33:36.106Z,13.32
2019-04-23T12:34:49.338Z,14.40
2019-04-23T12:35:38.987Z,20.97
2019-04-23T12:36:50.929Z,12.45
2019-04-23T12:38:00.725Z,16.37
2019-04-23T12:39:11.274Z,22.30
2019-04-23T12:41:21.132Z,16.95
2019-04-23T12:42:48.913Z,25.48
2019-04-23T12:43:50.333Z,18.05
2019-04-23T12:44:51.702Z,22.87
2019-04-23T12:45:42.499Z,42.40
2019-04-23T12:46:57.647Z,21.65
2019-04-23T12:49:27.687Z,13.78
2019-04-23T12:50:38.075Z,15.13
2019-04-23T12:51:26.366Z,16.90
2019-04-23T12:52:37.930Z,11.68
2019-04-23T12:53:38.276Z,14.33
2019-04-23T12:57:09.077Z,22.35
2019-04-23T12:57:57.551Z,16.42
2019-04-23T12:59:01.822Z,24.63
2019-04-23T13:00:18.720Z,21.48
2019-04-23T13:01:13.781Z,18.98
2019-04-23T13:02:33.426Z,22.65
2019-04-23T13:03:29.789Z,11.65
2019-04-23T13:04:41.593Z,20.48
2019-04-23T13:05:34.117Z,16.87
2019-04-23T13:06:44.212Z,22.52
2019-04-23T13:07:52.075Z,28.83
2019-04-23T13:09:02.803Z,23.15
2019-04-23T13:10:21.070Z,28.38
2019-04-23T13:11:14.142Z,22.70
2019-04-23T13:12:33.061Z,27.15
2019-04-23T13:14:39.519Z,14.70
2019-04-23T13:15:34.285Z,18.50
2019-04-23T13:16:54.062Z,13.68
2019-04-23T13:20:01.426Z,15.83
2019-04-23T13:21:36.342Z,20.20
2019-04-23T13:22:21.425Z,15.65
2019-04-23T13:23:22.150Z,18.27
2019-04-23T13:24:48.759Z,19.23
2019-04-23T13:27:12.021Z,28.95
2019-04-23T13:28:14.087Z,18.35
2019-04-23T13:29:32.933Z,24.90
2019-04-23T13:30:31.613Z,19.40
2019-04-23T13:31:30.127Z,27.75
2019-04-23T13:32:38.991Z,33.80
2019-04-23T13:33:43.871Z,23.22
2019-04-23T13:34:58.844Z,20.35
2019-04-23T13:36:01.064Z,23.32
2019-04-23T13:36:59.764Z,21.82
2019-04-23T13:38:38.885Z,15.15
2019-04-23T13:39:18.469Z,16.60
2019-04-23T13:40:24.728Z,19.25
2019-04-23T13:42:40.340Z,20.97
2019-04-23T13:43:40.465Z,26.45
2019-04-23T13:44:46.731Z,27.95
2019-04-23T13:46:59.988Z,24.15
2019-04-23T13:49:07.952Z,28.50
2019-04-23T13:51:25.709Z,25.55
2019-04-23T13:52:59.844Z,40.52
2019-04-23T13:55:42.869Z,19.17
2019-04-23T13:57:23.915Z,19.70
2019-04-23T13:58:07.222Z,23.45
2019-04-23T13:59:15.649Z,28.12
2019-04-23T14:00:20.593Z,25.27
2019-04-23T14:01:26.243Z,21.25
2019-04-23T14:07:28.012Z,24.98
2019-04-23T14:08:33.530Z,24.80
2019-04-23T14:09:41.322Z,22.67
2019-04-23T14:10:39.717Z,17.73
2019-04-23T14:11:51.523Z,28.50
2019-04-23T14:13:10.796Z,20.88
2019-04-23T14:13:56.713Z,21.95
2019-04-23T14:15:04.890Z,18.75
2019-04-23T14:16:13.790Z,20.15
2019-04-23T14:18:43.328Z,34.75
2019-04-23T14:19:22.578Z,31.85
2019-04-23T14:20:34.803Z,23.90
2019-04-23T14:21:44.525Z,29.67
2019-04-23T14:23:00.009Z,20.27
2019-04-23T14:24:08.256Z,25.35
2019-04-23T14:25:08.073Z,31.80
2019-04-23T14:26:20.748Z,24.23
2019-04-23T14:27:14.343Z,35.92
2019-04-23T14:28:21.701Z,27.87
2019-04-23T14:29:32.458Z,19.52
2019-04-23T14:31:38.884Z,24.02
2019-04-23T14:32:45.741Z,21.50
2019-04-23T14:34:01.343Z,19.57
2019-04-23T14:35:08.544Z,34.95
2019-04-23T14:36:05.770Z,23.85
2019-04-23T14:38:23.452Z,19.27
2019-04-23T14:39:27.409Z,24.15
2019-04-23T14:41:36.301Z,32.88
2019-04-23T14:42:44.907Z,35.98
2019-04-23T14:43:48.710Z,32.28
2019-04-23T14:45:08.202Z,33.15
2019-04-23T14:47:24.059Z,30.70
2019-04-23T14:50:46.924Z,34.80
2019-04-23T14:51:51.593Z,25.43
2019-04-23T14:53:08.159Z,35.05
2019-04-23T14:54:22.941Z,33.60
2019-04-23T14:55:40.196Z,27.05
2019-04-23T14:57:35.179Z,23.50
2019-04-23T14:58:31.464Z,20.77
2019-04-23T14:59:29.015Z,21.48
2019-04-23T15:01:49.770Z,29.67
2019-04-23T15:03:02.989Z,34.18
2019-04-23T15:04:10.895Z,25.75
2019-04-23T15:05:13.164Z,23.77
2019-04-23T15:07:22.333Z,21.20
2019-04-23T15:08:32.852Z,23.98
2019-04-23T15:09:36.133Z,24.92
2019-04-23T15:10:41.706Z,30.43
2019-04-23T15:12:50.574Z,23.20
2019-04-23T15:13:53.863Z,23.38
2019-04-23T15:15:10.022Z,21.25
2019-04-23T15:17:17.803Z,23.32
2019-04-23T15:18:35.257Z,24.25
2019-04-23T15:19:58.069Z,26.00
2019-04-23T15:21:28.330Z,34.10
2019-04-23T15:22:16.610Z,29.23
2019-04-23T15:23:33.350Z,24.82
2019-04-23T15:25:53.145Z,20.62
2019-04-23T15:28:30.208Z,21.30
2019-04-23T15:29:48.451Z,28.12
2019-04-23T15:31:17.931Z,26.65
2019-04-23T15:32:09.947Z,24.07
2019-04-23T15:33:27.997Z,27.15
2019-04-23T15:34:30.971Z,22.62
2019-04-23T15:37:58.279Z,27.95
2019-04-23T15:39:04.127Z,18.02
2019-04-23T15:40:05.806Z,27.98
2019-04-23T15:41:07.412Z,20.40
2019-04-23T15:42:10.878Z,32.78
2019-04-23T15:45:28.892Z,30.25
2019-04-23T15:46:39.305Z,20.10
2019-04-23T15:47:45.323Z,25.85
2019-04-23T15:48:57.664Z,32.03
2019-04-23T15:51:04.145Z,25.23
2019-04-23T15:52:07.345Z,23.27
2019-04-23T15:53:05.942Z,21.90
2019-04-23T15:54:35.394Z,19.50
2019-04-23T15:55:22.487Z,26.17
2019-04-23T15:56:35.910Z,21.25
2019-04-23T15:57:54.123Z,22.95
2019-04-23T15:59:00.176Z,23.80
2019-04-23T16:00:02.275Z,22.87
2019-04-23T16:01:15.352Z,22.73
2019-04-23T16:01:51.048Z,25.10
2019-04-23T16:02:55.375Z,25.32
2019-04-23T16:04:01.231Z,26.45
2019-04-23T16:05:08.540Z,23.02
2019-04-23T16:06:16.545Z,22.13
2019-04-23T16:07:39.091Z,20.08
2019-04-23T16:09:05.372Z,23.35
2019-04-23T16:10:04.242Z,28.47
2019-04-23T16:11:17.153Z,26.23
2019-04-23T16:12:04.694Z,17.15
2019-04-23T16:13:37.403Z,24.47
2019-04-23T16:15:30.927Z,25.83
2019-04-23T16:16:39.801Z,25.50
2019-04-23T16:17:41.998Z,20.70
2019-04-23T16:18:58.968Z,33.37
2019-04-23T16:21:26.574Z,27.07
2019-04-23T16:22:18.547Z,25.07
2019-04-23T16:23:28.035Z,32.13
2019-04-23T16:24:26.569Z,26.60
2019-04-23T16:25:38.703Z,23.87
2019-04-23T16:26:55.822Z,32.20
2019-04-23T16:27:49.153Z,21.60
2019-04-23T16:29:19.048Z,30.47
2019-04-23T16:31:20.978Z,29.03
2019-04-23T16:32:22.861Z,32.63
2019-04-23T16:33:16.554Z,21.87
2019-04-23T16:35:15.632Z,21.27
2019-04-23T16:36:12.703Z,30.43
2019-04-23T16:37:16.954Z,30.00
2019-04-23T16:38:34.270Z,26.43
2019-04-23T16:39:22.062Z,22.73
2019-04-23T16:41:39.966Z,22.80
2019-04-23T16:42:49.372Z,31.00
2019-04-23T16:45:07.494Z,26.57
2019-04-23T16:46:07.220Z,23.60
2019-04-23T16:47:26.472Z,22.40
2019-04-23T16:48:26.258Z,16.83
2019-04-23T16:52:46.300Z,23.30
2019-04-23T16:53:47.044Z,23.97
2019-04-23T16:54:54.941Z,28.57
2019-04-23T16:56:04.771Z,26.90
2019-04-23T16:58:22.612Z,27.67
2019-04-23T17:01:24.979Z,22.33
2019-04-23T17:02:34.134Z,27.77
2019-04-23T17:04:53.030Z,17.70
2019-04-23T17:05:57.827Z,20.07
2019-04-23T17:07:08.421Z,18.50
2019-04-23T17:08:32.594Z,21.93
2019-04-23T17:09:09.470Z,31.63
2019-04-23T17:10:19.206Z,21.70
2019-04-23T17:12:25.108Z,30.67
2019-04-23T17:13:37.599Z,29.37
2019-04-23T17:14:41.574Z,24.30
2019-04-23T17:16:49.388Z,23.57
2019-04-23T17:18:03.503Z,19.63
2019-04-23T17:19:10.405Z,26.57
2019-04-23T17:20:19.768Z,34.20
2019-04-23T17:21:16.836Z,23.03
2019-04-23T17:22:24.901Z,24.97
2019-04-23T17:23:39.690Z,28.03
2019-04-23T17:24:46.052Z,16.33
2019-04-23T17:25:41.761Z,18.40
2019-04-23T17:27:09.302Z,29.47
2019-04-23T17:28:03.593Z,18.23
2019-04-23T17:29:09.800Z,23.50
2019-04-23T17:30:11.998Z,23.40
2019-04-23T17:32:38.579Z,19.40
2019-04-23T17:33:49.674Z,20.87
2019-04-23T17:35:19.197Z,21.37
2019-04-23T17:36:49.541Z,25.67
2019-04-23T17:38:00.734Z,19.90
2019-04-23T17:39:07.810Z,19.63
2019-04-23T17:40:17.727Z,20.17
2019-04-23T17:43:20.658Z,24.50
2019-04-23T17:45:30.777Z,21.37
2019-04-23T17:46:32.334Z,23.00
2019-04-23T17:47:35.502Z,26.83
2019-04-23T17:48:48.020Z,29.93
2019-04-23T17:51:07.970Z,20.57
2019-04-23T17:53:17.819Z,23.90
2019-04-23T17:54:17.887Z,25.10
2019-04-23T17:55:22.276Z,22.13
2019-04-23T17:56:39.313Z,21.53
2019-04-23T17:57:36.834Z,20.67
2019-04-23T17:58:40.890Z,15.97
2019-04-23T18:00:08.450Z,18.13
2019-04-23T18:03:40.012Z,15.10
2019-04-23T18:04:43.710Z,24.53
2019-04-23T18:05:51.463Z,22.33
2019-04-23T18:06:55.802Z,22.57
2019-04-23T18:07:59.395Z,20.23
2019-04-23T18:10:24.961Z,20.53
2019-04-23T18:11:27.896Z,24.07
2019-04-23T18:13:40.923Z,21.67
2019-04-23T18:14:34.756Z,23.87
2019-04-23T18:15:47.340Z,23.87